sensor_id;sensor_type;location;lat;lon;timestamp;temperature;humidity
66140;DHT22;52945;51.908;8.364;2023-10-09T00:01:09;16.00;67.80
66140;DHT22;52945;51.908;8.364;2023-10-09T00:04:18;15.90;68.00
66140;DHT22;52945;51.908;8.364;2023-10-09T00:07:18;16.00;68.30
66140;DHT22;52945;51.908;8.364;2023-10-09T00:10:20;16.00;68.10
66140;DHT22;52945;51.908;8.364;2023-10-09T00:13:24;16.00;68.20
66140;DHT22;52945;51.908;8.364;2023-10-09T00:16:30;15.90;68.40
66140;DHT22;52945;51.908;8.364;2023-10-09T00:19:46;15.90;68.40
66140;DHT22;52945;51.908;8.364;2023-10-09T00:23:00;15.90;68.80
66140;DHT22;52945;51.908;8.364;2023-10-09T00:26:00;15.90;68.80
66140;DHT22;52945;51.908;8.364;2023-10-09T00:29:13;15.90;69.20
66140;DHT22;52945;51.908;8.364;2023-10-09T00:32:16;15.90;69.60
66140;DHT22;52945;51.908;8.364;2023-10-09T00:35:19;15.90;69.50
66140;DHT22;52945;51.908;8.364;2023-10-09T00:38:38;15.90;69.80
66140;DHT22;52945;51.908;8.364;2023-10-09T00:41:56;15.90;69.50
66140;DHT22;52945;51.908;8.364;2023-10-09T00:44:59;15.90;69.90
66140;DHT22;52945;51.908;8.364;2023-10-09T00:48:11;15.90;70.30
66140;DHT22;52945;51.908;8.364;2023-10-09T00:51:18;15.90;69.90
66140;DHT22;52945;51.908;8.364;2023-10-09T00:54:22;15.90;69.70
66140;DHT22;52945;51.908;8.364;2023-10-09T00:57:29;15.90;70.00
66140;DHT22;52945;51.908;8.364;2023-10-09T01:00:31;15.90;70.40
66140;DHT22;52945;51.908;8.364;2023-10-09T01:03:32;15.90;70.10
66140;DHT22;52945;51.908;8.364;2023-10-09T01:06:34;15.90;69.80
66140;DHT22;52945;51.908;8.364;2023-10-09T01:09:43;15.90;69.70
66140;DHT22;52945;51.908;8.364;2023-10-09T01:12:45;15.90;70.60
66140;DHT22;52945;51.908;8.364;2023-10-09T01:15:47;15.80;70.80
66140;DHT22;52945;51.908;8.364;2023-10-09T01:21:53;15.80;71.00
66140;DHT22;52945;51.908;8.364;2023-10-09T01:24:53;15.80;70.60
66140;DHT22;52945;51.908;8.364;2023-10-09T01:27:55;15.80;70.60
66140;DHT22;52945;51.908;8.364;2023-10-09T01:30:57;15.80;71.30
66140;DHT22;52945;51.908;8.364;2023-10-09T01:33:57;15.80;71.50
66140;DHT22;52945;51.908;8.364;2023-10-09T01:37:00;15.80;71.40
66140;DHT22;52945;51.908;8.364;2023-10-09T01:40:02;15.80;71.10
66140;DHT22;52945;51.908;8.364;2023-10-09T01:43:38;15.80;71.10
66140;DHT22;52945;51.908;8.364;2023-10-09T01:46:39;15.80;71.00
66140;DHT22;52945;51.908;8.364;2023-10-09T01:49:40;15.80;71.10
66140;DHT22;52945;51.908;8.364;2023-10-09T01:52:44;15.80;71.60
66140;DHT22;52945;51.908;8.364;2023-10-09T01:55:44;15.80;72.00
66140;DHT22;52945;51.908;8.364;2023-10-09T01:58:46;15.80;72.30
66140;DHT22;52945;51.908;8.364;2023-10-09T02:01:47;15.80;72.10
66140;DHT22;52945;51.908;8.364;2023-10-09T02:04:48;15.80;71.70
66140;DHT22;52945;51.908;8.364;2023-10-09T02:07:49;15.80;71.50
66140;DHT22;52945;51.908;8.364;2023-10-09T02:10:53;15.80;71.60
66140;DHT22;52945;51.908;8.364;2023-10-09T02:13:56;15.90;71.70
66140;DHT22;52945;51.908;8.364;2023-10-09T02:16:57;15.90;72.20
66140;DHT22;52945;51.908;8.364;2023-10-09T02:20:04;15.90;72.30
66140;DHT22;52945;51.908;8.364;2023-10-09T02:23:17;15.90;72.20
66140;DHT22;52945;51.908;8.364;2023-10-09T02:26:21;15.90;72.50
66140;DHT22;52945;51.908;8.364;2023-10-09T02:29:42;15.90;72.30
66140;DHT22;52945;51.908;8.364;2023-10-09T02:32:43;15.90;72.20
66140;DHT22;52945;51.908;8.364;2023-10-09T02:35:45;15.90;71.90
66140;DHT22;52945;51.908;8.364;2023-10-09T02:38:45;16.00;72.40
66140;DHT22;52945;51.908;8.364;2023-10-09T02:41:53;16.00;72.40
66140;DHT22;52945;51.908;8.364;2023-10-09T02:44:58;16.00;72.90
66140;DHT22;52945;51.908;8.364;2023-10-09T02:48:01;16.00;73.20
66140;DHT22;52945;51.908;8.364;2023-10-09T02:51:09;16.00;73.20
66140;DHT22;52945;51.908;8.364;2023-10-09T02:54:17;16.00;73.40
66140;DHT22;52945;51.908;8.364;2023-10-09T02:57:18;16.00;73.60
66140;DHT22;52945;51.908;8.364;2023-10-09T03:00:39;16.00;73.70
66140;DHT22;52945;51.908;8.364;2023-10-09T03:03:41;16.00;73.50
66140;DHT22;52945;51.908;8.364;2023-10-09T03:06:47;16.00;73.10
66140;DHT22;52945;51.908;8.364;2023-10-09T03:09:51;16.10;73.30
66140;DHT22;52945;51.908;8.364;2023-10-09T03:12:52;16.10;73.90
66140;DHT22;52945;51.908;8.364;2023-10-09T03:15:54;16.10;73.80
66140;DHT22;52945;51.908;8.364;2023-10-09T03:18:55;16.10;73.60
66140;DHT22;52945;51.908;8.364;2023-10-09T03:21:56;16.10;73.40
66140;DHT22;52945;51.908;8.364;2023-10-09T03:25:00;16.10;73.40
66140;DHT22;52945;51.908;8.364;2023-10-09T03:28:01;16.10;73.40
66140;DHT22;52945;51.908;8.364;2023-10-09T03:31:03;16.10;73.40
66140;DHT22;52945;51.908;8.364;2023-10-09T03:34:06;16.10;73.00
66140;DHT22;52945;51.908;8.364;2023-10-09T03:37:08;16.10;72.70
66140;DHT22;52945;51.908;8.364;2023-10-09T03:40:21;16.20;72.40
66140;DHT22;52945;51.908;8.364;2023-10-09T03:43:22;16.10;72.20
66140;DHT22;52945;51.908;8.364;2023-10-09T03:46:24;16.20;72.80
66140;DHT22;52945;51.908;8.364;2023-10-09T03:49:33;16.20;72.70
66140;DHT22;52945;51.908;8.364;2023-10-09T03:52:33;16.20;74.40
66140;DHT22;52945;51.908;8.364;2023-10-09T03:55:36;16.20;74.00
66140;DHT22;52945;51.908;8.364;2023-10-09T03:58:43;16.20;72.90
66140;DHT22;52945;51.908;8.364;2023-10-09T04:01:45;16.20;73.30
66140;DHT22;52945;51.908;8.364;2023-10-09T04:04:46;16.20;73.30
66140;DHT22;52945;51.908;8.364;2023-10-09T04:07:48;16.20;74.40
66140;DHT22;52945;51.908;8.364;2023-10-09T04:10:50;16.20;75.20
66140;DHT22;52945;51.908;8.364;2023-10-09T04:13:54;16.20;74.60
66140;DHT22;52945;51.908;8.364;2023-10-09T04:16:56;16.20;74.50
66140;DHT22;52945;51.908;8.364;2023-10-09T04:20:22;16.20;75.00
66140;DHT22;52945;51.908;8.364;2023-10-09T04:23:23;16.20;75.60
66140;DHT22;52945;51.908;8.364;2023-10-09T04:26:36;16.30;75.50
66140;DHT22;52945;51.908;8.364;2023-10-09T04:29:37;16.30;75.60
66140;DHT22;52945;51.908;8.364;2023-10-09T04:32:39;16.30;75.30
66140;DHT22;52945;51.908;8.364;2023-10-09T04:35:40;16.40;76.20
66140;DHT22;52945;51.908;8.364;2023-10-09T04:38:52;16.40;76.70
66140;DHT22;52945;51.908;8.364;2023-10-09T04:42:14;16.40;77.20
66140;DHT22;52945;51.908;8.364;2023-10-09T04:45:24;16.50;77.10
66140;DHT22;52945;51.908;8.364;2023-10-09T04:48:44;16.50;77.20
66140;DHT22;52945;51.908;8.364;2023-10-09T04:51:46;16.50;77.40
66140;DHT22;52945;51.908;8.364;2023-10-09T04:55:05;16.50;77.40
66140;DHT22;52945;51.908;8.364;2023-10-09T04:58:12;16.60;77.70
66140;DHT22;52945;51.908;8.364;2023-10-09T05:01:24;16.60;77.90
66140;DHT22;52945;51.908;8.364;2023-10-09T05:04:36;16.60;77.70
66140;DHT22;52945;51.908;8.364;2023-10-09T05:07:40;16.70;77.70
66140;DHT22;52945;51.908;8.364;2023-10-09T05:14:01;16.70;77.80
66140;DHT22;52945;51.908;8.364;2023-10-09T05:17:14;16.70;77.30
66140;DHT22;52945;51.908;8.364;2023-10-09T05:20:17;16.80;77.50
66140;DHT22;52945;51.908;8.364;2023-10-09T05:23:27;16.80;77.20
66140;DHT22;52945;51.908;8.364;2023-10-09T05:26:28;16.80;76.70
66140;DHT22;52945;51.908;8.364;2023-10-09T05:29:46;16.80;76.20
66140;DHT22;52945;51.908;8.364;2023-10-09T05:33:22;16.90;76.70
66140;DHT22;52945;51.908;8.364;2023-10-09T05:36:28;16.90;76.70
66140;DHT22;52945;51.908;8.364;2023-10-09T05:39:29;16.90;77.10
66140;DHT22;52945;51.908;8.364;2023-10-09T05:42:42;16.90;77.30
66140;DHT22;52945;51.908;8.364;2023-10-09T05:45:42;16.90;77.30
66140;DHT22;52945;51.908;8.364;2023-10-09T05:49:02;16.90;76.40
66140;DHT22;52945;51.908;8.364;2023-10-09T05:52:10;16.90;76.10
66140;DHT22;52945;51.908;8.364;2023-10-09T05:55:30;17.00;76.40
66140;DHT22;52945;51.908;8.364;2023-10-09T05:59:09;16.90;75.40
66140;DHT22;52945;51.908;8.364;2023-10-09T06:02:28;16.90;74.90
66140;DHT22;52945;51.908;8.364;2023-10-09T06:05:48;17.00;75.40
66140;DHT22;52945;51.908;8.364;2023-10-09T06:09:05;17.00;74.80
66140;DHT22;52945;51.908;8.364;2023-10-09T06:12:14;17.00;75.70
66140;DHT22;52945;51.908;8.364;2023-10-09T06:15:37;17.00;75.90
66140;DHT22;52945;51.908;8.364;2023-10-09T06:18:44;17.00;75.40
66140;DHT22;52945;51.908;8.364;2023-10-09T06:21:54;17.00;75.00
66140;DHT22;52945;51.908;8.364;2023-10-09T06:25:04;17.10;75.10
66140;DHT22;52945;51.908;8.364;2023-10-09T06:28:12;17.10;74.80
66140;DHT22;52945;51.908;8.364;2023-10-09T06:31:14;17.10;75.50
66140;DHT22;52945;51.908;8.364;2023-10-09T06:34:37;17.10;75.90
66140;DHT22;52945;51.908;8.364;2023-10-09T06:37:46;17.10;76.00
66140;DHT22;52945;51.908;8.364;2023-10-09T06:41:04;17.10;75.80
66140;DHT22;52945;51.908;8.364;2023-10-09T06:44:04;17.10;76.50
66140;DHT22;52945;51.908;8.364;2023-10-09T06:47:06;17.20;77.10
66140;DHT22;52945;51.908;8.364;2023-10-09T06:50:12;17.20;77.20
66140;DHT22;52945;51.908;8.364;2023-10-09T06:53:26;17.20;77.40
66140;DHT22;52945;51.908;8.364;2023-10-09T06:56:46;17.20;77.50
66140;DHT22;52945;51.908;8.364;2023-10-09T06:59:53;17.30;77.70
66140;DHT22;52945;51.908;8.364;2023-10-09T07:03:12;17.30;77.80
66140;DHT22;52945;51.908;8.364;2023-10-09T07:06:13;17.30;77.80
66140;DHT22;52945;51.908;8.364;2023-10-09T07:09:34;17.40;77.70
66140;DHT22;52945;51.908;8.364;2023-10-09T07:12:43;17.40;77.70
66140;DHT22;52945;51.908;8.364;2023-10-09T07:15:44;17.50;77.90
66140;DHT22;52945;51.908;8.364;2023-10-09T07:19:07;17.40;77.90
66140;DHT22;52945;51.908;8.364;2023-10-09T07:22:30;17.50;77.70
66140;DHT22;52945;51.908;8.364;2023-10-09T07:25:41;17.60;77.70
66140;DHT22;52945;51.908;8.364;2023-10-09T07:28:41;17.60;77.70
66140;DHT22;52945;51.908;8.364;2023-10-09T07:31:49;17.60;77.70
66140;DHT22;52945;51.908;8.364;2023-10-09T07:34:57;17.70;77.70
66140;DHT22;52945;51.908;8.364;2023-10-09T07:37:59;17.70;77.90
66140;DHT22;52945;51.908;8.364;2023-10-09T07:41:03;17.70;77.90
66140;DHT22;52945;51.908;8.364;2023-10-09T07:44:07;17.70;77.80
66140;DHT22;52945;51.908;8.364;2023-10-09T07:47:19;17.70;77.90
66140;DHT22;52945;51.908;8.364;2023-10-09T07:50:38;17.80;78.00
66140;DHT22;52945;51.908;8.364;2023-10-09T07:53:41;17.70;77.90
66140;DHT22;52945;51.908;8.364;2023-10-09T07:56:45;17.80;78.00
66140;DHT22;52945;51.908;8.364;2023-10-09T07:59:45;17.80;77.90
66140;DHT22;52945;51.908;8.364;2023-10-09T08:03:01;17.80;77.70
66140;DHT22;52945;51.908;8.364;2023-10-09T08:06:03;17.90;77.80
66140;DHT22;52945;51.908;8.364;2023-10-09T08:09:22;17.90;77.60
66140;DHT22;52945;51.908;8.364;2023-10-09T08:12:43;17.90;77.40
66140;DHT22;52945;51.908;8.364;2023-10-09T08:15:56;18.00;77.40
66140;DHT22;52945;51.908;8.364;2023-10-09T08:18:56;18.00;77.40
66140;DHT22;52945;51.908;8.364;2023-10-09T08:21:59;18.10;77.20
66140;DHT22;52945;51.908;8.364;2023-10-09T08:25:38;18.10;77.20
66140;DHT22;52945;51.908;8.364;2023-10-09T08:28:57;18.20;77.10
66140;DHT22;52945;51.908;8.364;2023-10-09T08:32:18;18.20;77.00
66140;DHT22;52945;51.908;8.364;2023-10-09T08:35:18;18.20;77.00
66140;DHT22;52945;51.908;8.364;2023-10-09T08:38:33;18.20;77.00
66140;DHT22;52945;51.908;8.364;2023-10-09T08:41:34;18.20;77.00
66140;DHT22;52945;51.908;8.364;2023-10-09T08:44:35;18.20;77.00
66140;DHT22;52945;51.908;8.364;2023-10-09T08:47:37;18.20;77.00
66140;DHT22;52945;51.908;8.364;2023-10-09T08:50:37;18.30;77.10
66140;DHT22;52945;51.908;8.364;2023-10-09T08:53:39;18.30;77.10
66140;DHT22;52945;51.908;8.364;2023-10-09T08:56:46;18.30;77.00
66140;DHT22;52945;51.908;8.364;2023-10-09T08:59:53;18.30;77.00
66140;DHT22;52945;51.908;8.364;2023-10-09T09:02:54;18.30;77.00
66140;DHT22;52945;51.908;8.364;2023-10-09T09:06:01;18.30;77.00
66140;DHT22;52945;51.908;8.364;2023-10-09T09:09:11;18.40;77.00
66140;DHT22;52945;51.908;8.364;2023-10-09T09:12:14;18.40;76.80
66140;DHT22;52945;51.908;8.364;2023-10-09T09:15:16;18.50;76.90
66140;DHT22;52945;51.908;8.364;2023-10-09T09:18:27;18.50;76.80
66140;DHT22;52945;51.908;8.364;2023-10-09T09:21:33;18.50;76.80
66140;DHT22;52945;51.908;8.364;2023-10-09T09:24:58;18.50;76.80
66140;DHT22;52945;51.908;8.364;2023-10-09T09:28:05;18.50;76.90
66140;DHT22;52945;51.908;8.364;2023-10-09T09:31:12;18.60;76.80
66140;DHT22;52945;51.908;8.364;2023-10-09T09:34:14;18.70;76.70
66140;DHT22;52945;51.908;8.364;2023-10-09T09:37:23;18.70;76.40
66140;DHT22;52945;51.908;8.364;2023-10-09T09:40:34;18.70;76.40
66140;DHT22;52945;51.908;8.364;2023-10-09T09:43:41;18.70;76.30
66140;DHT22;52945;51.908;8.364;2023-10-09T09:46:47;18.80;76.20
66140;DHT22;52945;51.908;8.364;2023-10-09T09:49:50;18.80;76.10
66140;DHT22;52945;51.908;8.364;2023-10-09T09:52:59;18.90;76.10
66140;DHT22;52945;51.908;8.364;2023-10-09T09:56:00;18.90;76.20
66140;DHT22;52945;51.908;8.364;2023-10-09T09:59:03;18.90;76.10
66140;DHT22;52945;51.908;8.364;2023-10-09T10:02:10;19.00;75.90
66140;DHT22;52945;51.908;8.364;2023-10-09T10:05:18;19.00;75.70
66140;DHT22;52945;51.908;8.364;2023-10-09T10:08:21;19.00;75.50
66140;DHT22;52945;51.908;8.364;2023-10-09T10:11:41;19.00;75.40
66140;DHT22;52945;51.908;8.364;2023-10-09T10:14:56;19.10;75.50
66140;DHT22;52945;51.908;8.364;2023-10-09T10:21:11;19.00;75.40
66140;DHT22;52945;51.908;8.364;2023-10-09T10:27:29;19.10;75.40
66140;DHT22;52945;51.908;8.364;2023-10-09T10:30:33;19.20;75.50
66140;DHT22;52945;51.908;8.364;2023-10-09T10:36:55;19.20;75.40
66140;DHT22;52945;51.908;8.364;2023-10-09T10:40:03;19.20;75.60
66140;DHT22;52945;51.908;8.364;2023-10-09T10:43:16;19.30;75.80
66140;DHT22;52945;51.908;8.364;2023-10-09T10:46:41;19.30;75.60
66140;DHT22;52945;51.908;8.364;2023-10-09T10:49:44;19.20;75.50
66140;DHT22;52945;51.908;8.364;2023-10-09T10:52:49;19.30;75.60
66140;DHT22;52945;51.908;8.364;2023-10-09T10:56:03;19.20;75.40
66140;DHT22;52945;51.908;8.364;2023-10-09T10:59:30;19.30;75.40
66140;DHT22;52945;51.908;8.364;2023-10-09T11:02:37;19.20;75.30
66140;DHT22;52945;51.908;8.364;2023-10-09T11:05:40;19.20;75.60
66140;DHT22;52945;51.908;8.364;2023-10-09T11:08:45;19.30;75.80
66140;DHT22;52945;51.908;8.364;2023-10-09T11:11:55;19.30;75.70
66140;DHT22;52945;51.908;8.364;2023-10-09T11:15:13;19.30;75.80
66140;DHT22;52945;51.908;8.364;2023-10-09T11:18:22;19.30;75.70
66140;DHT22;52945;51.908;8.364;2023-10-09T11:21:27;19.40;75.70
66140;DHT22;52945;51.908;8.364;2023-10-09T11:24:41;19.30;75.70
66140;DHT22;52945;51.908;8.364;2023-10-09T11:27:44;19.30;75.60
66140;DHT22;52945;51.908;8.364;2023-10-09T11:30:50;19.40;75.70
66140;DHT22;52945;51.908;8.364;2023-10-09T11:33:55;19.30;75.50
66140;DHT22;52945;51.908;8.364;2023-10-09T11:36:56;19.30;75.40
66140;DHT22;52945;51.908;8.364;2023-10-09T11:39:58;19.30;75.40
66140;DHT22;52945;51.908;8.364;2023-10-09T11:43:02;19.40;75.30
66140;DHT22;52945;51.908;8.364;2023-10-09T11:46:11;19.50;75.30
66140;DHT22;52945;51.908;8.364;2023-10-09T11:49:11;19.50;75.20
66140;DHT22;52945;51.908;8.364;2023-10-09T11:52:21;19.50;75.20
66140;DHT22;52945;51.908;8.364;2023-10-09T11:55:38;19.50;75.10
66140;DHT22;52945;51.908;8.364;2023-10-09T11:58:38;19.50;74.90
66140;DHT22;52945;51.908;8.364;2023-10-09T12:01:46;19.50;75.00
66140;DHT22;52945;51.908;8.364;2023-10-09T12:04:53;19.50;74.90
66140;DHT22;52945;51.908;8.364;2023-10-09T12:07:56;19.50;75.10
66140;DHT22;52945;51.908;8.364;2023-10-09T12:10:57;19.50;75.10
66140;DHT22;52945;51.908;8.364;2023-10-09T12:13:58;19.50;75.00
66140;DHT22;52945;51.908;8.364;2023-10-09T12:17:01;19.50;75.00
66140;DHT22;52945;51.908;8.364;2023-10-09T12:20:08;19.50;74.90
66140;DHT22;52945;51.908;8.364;2023-10-09T12:23:15;19.50;75.00
66140;DHT22;52945;51.908;8.364;2023-10-09T12:26:15;19.50;75.00
66140;DHT22;52945;51.908;8.364;2023-10-09T12:29:16;19.50;75.10
66140;DHT22;52945;51.908;8.364;2023-10-09T12:32:20;19.60;75.00
66140;DHT22;52945;51.908;8.364;2023-10-09T12:35:21;19.60;74.80
66140;DHT22;52945;51.908;8.364;2023-10-09T12:38:21;19.50;74.80
66140;DHT22;52945;51.908;8.364;2023-10-09T12:41:23;19.50;75.00
66140;DHT22;52945;51.908;8.364;2023-10-09T12:44:27;19.50;75.00
66140;DHT22;52945;51.908;8.364;2023-10-09T12:47:28;19.60;75.20
66140;DHT22;52945;51.908;8.364;2023-10-09T12:50:34;19.50;75.20
66140;DHT22;52945;51.908;8.364;2023-10-09T12:53:34;19.60;75.00
66140;DHT22;52945;51.908;8.364;2023-10-09T12:56:41;19.60;75.10
66140;DHT22;52945;51.908;8.364;2023-10-09T12:59:42;19.60;75.00
66140;DHT22;52945;51.908;8.364;2023-10-09T13:02:48;19.70;75.00
66140;DHT22;52945;51.908;8.364;2023-10-09T13:05:51;19.70;75.00
66140;DHT22;52945;51.908;8.364;2023-10-09T13:08:58;19.70;74.90
66140;DHT22;52945;51.908;8.364;2023-10-09T13:12:00;19.80;74.80
66140;DHT22;52945;51.908;8.364;2023-10-09T13:15:00;19.80;74.60
66140;DHT22;52945;51.908;8.364;2023-10-09T13:18:01;19.80;74.50
66140;DHT22;52945;51.908;8.364;2023-10-09T13:21:01;19.80;74.50
66140;DHT22;52945;51.908;8.364;2023-10-09T13:24:04;19.80;74.50
66140;DHT22;52945;51.908;8.364;2023-10-09T13:27:04;19.80;74.40
66140;DHT22;52945;51.908;8.364;2023-10-09T13:30:09;19.90;74.40
66140;DHT22;52945;51.908;8.364;2023-10-09T13:33:22;19.80;74.40
66140;DHT22;52945;51.908;8.364;2023-10-09T13:36:23;19.90;74.40
66140;DHT22;52945;51.908;8.364;2023-10-09T13:39:27;19.90;74.40
66140;DHT22;52945;51.908;8.364;2023-10-09T13:42:28;19.90;74.40
66140;DHT22;52945;51.908;8.364;2023-10-09T13:45:28;19.90;74.40
66140;DHT22;52945;51.908;8.364;2023-10-09T13:48:30;19.90;74.40
66140;DHT22;52945;51.908;8.364;2023-10-09T13:51:39;19.90;74.40
66140;DHT22;52945;51.908;8.364;2023-10-09T13:54:45;19.90;74.40
66140;DHT22;52945;51.908;8.364;2023-10-09T13:57:49;19.90;74.50
66140;DHT22;52945;51.908;8.364;2023-10-09T14:00:50;19.80;74.60
66140;DHT22;52945;51.908;8.364;2023-10-09T14:03:55;19.90;74.60
66140;DHT22;52945;51.908;8.364;2023-10-09T14:06:55;19.90;74.60
66140;DHT22;52945;51.908;8.364;2023-10-09T14:10:00;19.90;74.60
66140;DHT22;52945;51.908;8.364;2023-10-09T14:13:17;19.90;74.50
66140;DHT22;52945;51.908;8.364;2023-10-09T14:16:29;19.90;74.60
66140;DHT22;52945;51.908;8.364;2023-10-09T14:19:33;19.90;74.50
66140;DHT22;52945;51.908;8.364;2023-10-09T14:22:33;20.00;74.50
66140;DHT22;52945;51.908;8.364;2023-10-09T14:25:38;20.10;74.50
66140;DHT22;52945;51.908;8.364;2023-10-09T14:28:45;20.00;74.70
66140;DHT22;52945;51.908;8.364;2023-10-09T14:31:45;20.10;74.70
66140;DHT22;52945;51.908;8.364;2023-10-09T14:35:00;20.10;74.60
66140;DHT22;52945;51.908;8.364;2023-10-09T14:38:13;20.00;74.80
66140;DHT22;52945;51.908;8.364;2023-10-09T14:41:13;20.00;74.70
66140;DHT22;52945;51.908;8.364;2023-10-09T14:44:14;20.00;74.70
66140;DHT22;52945;51.908;8.364;2023-10-09T14:47:16;20.10;74.80
66140;DHT22;52945;51.908;8.364;2023-10-09T14:50:19;20.10;74.70
66140;DHT22;52945;51.908;8.364;2023-10-09T14:53:22;20.10;74.60
66140;DHT22;52945;51.908;8.364;2023-10-09T14:56:30;20.00;74.70
66140;DHT22;52945;51.908;8.364;2023-10-09T14:59:31;20.10;74.80
66140;DHT22;52945;51.908;8.364;2023-10-09T15:02:31;20.10;74.60
66140;DHT22;52945;51.908;8.364;2023-10-09T15:05:34;20.10;74.70
66140;DHT22;52945;51.908;8.364;2023-10-09T15:08:35;20.20;74.70
66140;DHT22;52945;51.908;8.364;2023-10-09T15:11:36;20.10;74.60
66140;DHT22;52945;51.908;8.364;2023-10-09T15:14:40;20.20;74.60
66140;DHT22;52945;51.908;8.364;2023-10-09T15:17:41;20.20;74.60
66140;DHT22;52945;51.908;8.364;2023-10-09T15:20:45;20.20;74.50
66140;DHT22;52945;51.908;8.364;2023-10-09T15:23:46;20.20;74.40
66140;DHT22;52945;51.908;8.364;2023-10-09T15:26:47;20.20;74.40
66140;DHT22;52945;51.908;8.364;2023-10-09T15:29:52;20.20;74.50
66140;DHT22;52945;51.908;8.364;2023-10-09T15:32:53;20.20;74.50
66140;DHT22;52945;51.908;8.364;2023-10-09T15:35:57;20.20;74.50
66140;DHT22;52945;51.908;8.364;2023-10-09T15:38:57;20.20;74.50
66140;DHT22;52945;51.908;8.364;2023-10-09T15:42:01;20.20;74.50
66140;DHT22;52945;51.908;8.364;2023-10-09T15:45:05;20.20;74.50
66140;DHT22;52945;51.908;8.364;2023-10-09T15:48:06;20.20;74.50
66140;DHT22;52945;51.908;8.364;2023-10-09T15:51:10;20.20;74.50
66140;DHT22;52945;51.908;8.364;2023-10-09T15:54:14;20.20;74.50
66140;DHT22;52945;51.908;8.364;2023-10-09T15:57:19;20.20;74.40
66140;DHT22;52945;51.908;8.364;2023-10-09T16:00:22;20.20;74.40
66140;DHT22;52945;51.908;8.364;2023-10-09T16:03:28;20.20;74.50
66140;DHT22;52945;51.908;8.364;2023-10-09T16:06:29;20.20;74.50
66140;DHT22;52945;51.908;8.364;2023-10-09T16:09:31;20.20;74.50
66140;DHT22;52945;51.908;8.364;2023-10-09T16:12:39;20.20;74.60
66140;DHT22;52945;51.908;8.364;2023-10-09T16:15:44;20.20;74.50
66140;DHT22;52945;51.908;8.364;2023-10-09T16:18:44;20.20;74.60
66140;DHT22;52945;51.908;8.364;2023-10-09T16:21:45;20.20;74.50
66140;DHT22;52945;51.908;8.364;2023-10-09T16:24:47;20.20;74.50
66140;DHT22;52945;51.908;8.364;2023-10-09T16:27:47;20.20;74.50
66140;DHT22;52945;51.908;8.364;2023-10-09T16:30:48;20.30;74.50
66140;DHT22;52945;51.908;8.364;2023-10-09T16:33:49;20.30;74.50
66140;DHT22;52945;51.908;8.364;2023-10-09T16:36:49;20.20;74.60
66140;DHT22;52945;51.908;8.364;2023-10-09T16:39:52;20.20;74.80
66140;DHT22;52945;51.908;8.364;2023-10-09T16:42:54;20.20;74.80
66140;DHT22;52945;51.908;8.364;2023-10-09T16:45:54;20.20;74.80
66140;DHT22;52945;51.908;8.364;2023-10-09T16:48:59;20.20;74.80
66140;DHT22;52945;51.908;8.364;2023-10-09T16:52:04;20.20;74.80
66140;DHT22;52945;51.908;8.364;2023-10-09T16:55:11;20.20;74.70
66140;DHT22;52945;51.908;8.364;2023-10-09T16:58:13;20.20;74.90
66140;DHT22;52945;51.908;8.364;2023-10-09T17:01:18;20.20;74.90
66140;DHT22;52945;51.908;8.364;2023-10-09T17:04:21;20.20;74.90
66140;DHT22;52945;51.908;8.364;2023-10-09T17:07:23;20.20;74.90
66140;DHT22;52945;51.908;8.364;2023-10-09T17:10:32;20.20;75.00
66140;DHT22;52945;51.908;8.364;2023-10-09T17:13:35;20.20;75.00
66140;DHT22;52945;51.908;8.364;2023-10-09T17:16:39;20.20;75.00
66140;DHT22;52945;51.908;8.364;2023-10-09T17:19:45;20.10;75.10
66140;DHT22;52945;51.908;8.364;2023-10-09T17:22:48;20.10;75.10
66140;DHT22;52945;51.908;8.364;2023-10-09T17:25:49;20.10;75.10
66140;DHT22;52945;51.908;8.364;2023-10-09T17:28:57;20.10;75.20
66140;DHT22;52945;51.908;8.364;2023-10-09T17:31:57;20.10;75.30
66140;DHT22;52945;51.908;8.364;2023-10-09T17:34:59;20.00;75.30
66140;DHT22;52945;51.908;8.364;2023-10-09T17:37:59;20.00;75.10
66140;DHT22;52945;51.908;8.364;2023-10-09T17:41:00;20.00;75.30
66140;DHT22;52945;51.908;8.364;2023-10-09T17:44:02;20.00;75.50
66140;DHT22;52945;51.908;8.364;2023-10-09T17:47:03;20.00;75.40
66140;DHT22;52945;51.908;8.364;2023-10-09T17:50:04;19.90;75.50
66140;DHT22;52945;51.908;8.364;2023-10-09T17:53:05;19.90;75.60
66140;DHT22;52945;51.908;8.364;2023-10-09T17:56:07;19.90;75.70
66140;DHT22;52945;51.908;8.364;2023-10-09T17:59:09;19.90;75.70
66140;DHT22;52945;51.908;8.364;2023-10-09T18:02:12;19.90;76.00
66140;DHT22;52945;51.908;8.364;2023-10-09T18:05:14;19.90;76.00
66140;DHT22;52945;51.908;8.364;2023-10-09T18:08:15;19.90;76.00
66140;DHT22;52945;51.908;8.364;2023-10-09T18:11:15;19.90;76.10
66140;DHT22;52945;51.908;8.364;2023-10-09T18:14:17;19.80;76.20
66140;DHT22;52945;51.908;8.364;2023-10-09T18:17:19;19.80;76.30
66140;DHT22;52945;51.908;8.364;2023-10-09T18:20:20;19.80;76.50
66140;DHT22;52945;51.908;8.364;2023-10-09T18:23:21;19.80;76.50
66140;DHT22;52945;51.908;8.364;2023-10-09T18:26:22;19.80;76.70
66140;DHT22;52945;51.908;8.364;2023-10-09T18:29:24;19.80;76.70
66140;DHT22;52945;51.908;8.364;2023-10-09T18:32:24;19.80;76.70
66140;DHT22;52945;51.908;8.364;2023-10-09T18:35:25;19.80;76.70
66140;DHT22;52945;51.908;8.364;2023-10-09T18:38:30;19.80;76.70
66140;DHT22;52945;51.908;8.364;2023-10-09T18:41:31;19.80;76.80
66140;DHT22;52945;51.908;8.364;2023-10-09T18:44:32;19.80;76.80
66140;DHT22;52945;51.908;8.364;2023-10-09T18:47:33;19.80;76.80
66140;DHT22;52945;51.908;8.364;2023-10-09T18:50:40;19.80;76.80
66140;DHT22;52945;51.908;8.364;2023-10-09T18:53:45;19.80;76.90
66140;DHT22;52945;51.908;8.364;2023-10-09T18:56:47;19.80;76.90
66140;DHT22;52945;51.908;8.364;2023-10-09T18:59:51;19.80;77.00
66140;DHT22;52945;51.908;8.364;2023-10-09T19:02:51;19.80;76.90
66140;DHT22;52945;51.908;8.364;2023-10-09T19:05:54;19.80;76.80
66140;DHT22;52945;51.908;8.364;2023-10-09T19:08:56;19.80;76.80
66140;DHT22;52945;51.908;8.364;2023-10-09T19:11:58;19.80;76.80
66140;DHT22;52945;51.908;8.364;2023-10-09T19:14:59;19.90;76.80
66140;DHT22;52945;51.908;8.364;2023-10-09T19:18:00;19.90;76.80
66140;DHT22;52945;51.908;8.364;2023-10-09T19:21:08;19.80;76.60
66140;DHT22;52945;51.908;8.364;2023-10-09T19:24:10;19.80;76.70
66140;DHT22;52945;51.908;8.364;2023-10-09T19:27:14;19.90;76.60
66140;DHT22;52945;51.908;8.364;2023-10-09T19:30:14;19.90;76.50
66140;DHT22;52945;51.908;8.364;2023-10-09T19:33:18;19.90;76.50
66140;DHT22;52945;51.908;8.364;2023-10-09T19:36:18;19.80;76.60
66140;DHT22;52945;51.908;8.364;2023-10-09T19:39:22;19.90;76.60
66140;DHT22;52945;51.908;8.364;2023-10-09T19:42:24;19.80;76.60
66140;DHT22;52945;51.908;8.364;2023-10-09T19:45:31;19.80;76.70
66140;DHT22;52945;51.908;8.364;2023-10-09T19:48:32;19.80;76.70